createdAt,value
2019-02-17T00:00:46.125Z,4.47
2019-02-17T00:03:15.904Z,4.48
2019-02-17T00:05:45.569Z,4.49
2019-02-17T00:08:15.388Z,4.43
2019-02-17T00:10:45.073Z,4.38
2019-02-17T00:13:14.764Z,4.34
2019-02-17T00:15:44.697Z,4.33
2019-02-17T00:18:14.365Z,4.30
2019-02-17T00:20:44.342Z,4.28
2019-02-17T00:23:14.032Z,4.26
2019-02-17T00:25:43.726Z,4.23
2019-02-17T00:28:13.385Z,4.17
2019-02-17T00:30:43.051Z,4.18
2019-02-17T00:33:12.733Z,4.18
2019-02-17T00:35:42.671Z,4.18
2019-02-17T00:38:12.342Z,4.16
2019-02-17T00:40:42.012Z,4.15
2019-02-17T00:43:11.932Z,4.15
2019-02-17T00:45:41.680Z,4.13
2019-02-17T00:48:11.421Z,4.12
2019-02-17T00:50:41.564Z,4.12
2019-02-17T00:53:11.257Z,4.11
2019-02-17T00:55:40.913Z,4.08
2019-02-17T00:58:10.584Z,4.02
2019-02-17T01:00:40.261Z,4.01
2019-02-17T01:03:09.932Z,4.00
2019-02-17T01:05:39.619Z,3.98
2019-02-17T01:08:09.589Z,3.98
2019-02-17T01:10:39.269Z,3.97
2019-02-17T01:13:08.933Z,3.97
2019-02-17T01:15:38.690Z,3.96
2019-02-17T01:18:08.390Z,3.94
2019-02-17T01:20:38.051Z,3.95
2019-02-17T01:23:07.764Z,3.95
2019-02-17T01:25:37.448Z,3.95
2019-02-17T01:28:07.153Z,3.95
2019-02-17T01:30:36.856Z,3.96
2019-02-17T01:33:06.553Z,3.95
2019-02-17T01:35:36.234Z,3.95
2019-02-17T01:38:06.014Z,3.94
2019-02-17T01:40:35.692Z,3.93
2019-02-17T01:43:05.513Z,3.92
2019-02-17T01:45:35.188Z,3.91
2019-02-17T01:48:05.139Z,3.89
2019-02-17T01:50:34.810Z,3.89
2019-02-17T01:53:05.304Z,3.89
2019-02-17T01:55:34.986Z,3.89
2019-02-17T01:58:05.177Z,3.88
2019-02-17T02:00:34.851Z,3.86
2019-02-17T02:03:05.391Z,3.86
2019-02-17T02:05:35.068Z,3.84
2019-02-17T02:08:05.246Z,3.80
2019-02-17T02:10:34.925Z,3.77
2019-02-17T02:13:05.474Z,3.72
2019-02-17T02:15:35.144Z,3.69
2019-02-17T02:18:04.888Z,3.66
2019-02-17T02:20:34.560Z,3.63
2019-02-17T02:23:04.973Z,3.58
2019-02-17T02:25:34.705Z,3.56
2019-02-17T02:28:05.056Z,3.55
2019-02-17T02:30:34.738Z,3.55
2019-02-17T02:33:04.712Z,3.56
2019-02-17T02:35:34.393Z,3.56
2019-02-17T02:38:04.899Z,3.53
2019-02-17T02:40:34.571Z,3.51
2019-02-17T02:43:05.140Z,3.51
2019-02-17T02:45:34.813Z,3.51
2019-02-17T02:48:05.595Z,3.51
2019-02-17T02:50:35.262Z,3.52
2019-02-17T02:53:04.952Z,3.51
2019-02-17T02:55:34.620Z,3.49
2019-02-17T02:58:05.175Z,3.50
2019-02-17T03:00:34.932Z,3.50
2019-02-17T03:03:05.308Z,3.50
2019-02-17T03:05:36.696Z,3.50
2019-02-17T03:08:06.365Z,3.49
2019-02-17T03:10:36.029Z,3.46
2019-02-17T03:13:05.722Z,3.43
2019-02-17T03:15:35.385Z,3.39
2019-02-17T03:18:05.191Z,3.40
2019-02-17T03:20:34.869Z,3.39
2019-02-17T03:23:05.316Z,3.38
2019-02-17T03:25:35.030Z,3.38
2019-02-17T03:28:04.786Z,3.38
2019-02-17T03:30:34.458Z,3.36
2019-02-17T03:33:05.003Z,3.37
2019-02-17T03:35:34.665Z,3.36
2019-02-17T03:38:05.126Z,3.34
2019-02-17T03:40:35.273Z,3.31
2019-02-17T03:43:05.273Z,3.30
2019-02-17T03:45:34.941Z,3.29
2019-02-17T03:48:05.032Z,3.29
2019-02-17T03:50:34.963Z,3.29
2019-02-17T03:53:05.009Z,3.29
2019-02-17T03:55:34.954Z,3.35
2019-02-17T03:58:05.154Z,3.38
2019-02-17T04:00:34.842Z,3.38
2019-02-17T04:03:04.710Z,3.36
2019-02-17T04:05:34.381Z,3.35
2019-02-17T04:08:04.956Z,3.32
2019-02-17T04:10:34.619Z,3.32
2019-02-17T04:13:04.974Z,3.30
2019-02-17T04:15:34.720Z,3.27
2019-02-17T04:18:05.349Z,3.24
2019-02-17T04:20:35.096Z,3.21
2019-02-17T04:23:05.021Z,3.20
2019-02-17T04:25:34.681Z,3.17
2019-02-17T04:28:05.108Z,3.13
2019-02-17T04:30:34.783Z,3.11
2019-02-17T04:33:05.036Z,3.07
2019-02-17T04:35:34.706Z,3.07
2019-02-17T04:38:05.121Z,3.05
2019-02-17T04:40:34.848Z,3.01
2019-02-17T04:43:05.000Z,2.98
2019-02-17T04:45:34.665Z,2.97
2019-02-17T04:48:05.100Z,2.96
2019-02-17T04:50:35.004Z,2.94
2019-02-17T04:53:05.173Z,2.93
2019-02-17T04:55:34.836Z,2.91
2019-02-17T04:58:04.728Z,2.89
2019-02-17T05:00:40.125Z,2.86
2019-02-17T05:03:05.774Z,2.83
2019-02-17T05:05:35.716Z,2.80
2019-02-17T05:08:05.390Z,2.80
2019-02-17T05:10:35.071Z,2.80
2019-02-17T05:13:05.561Z,2.76
2019-02-17T05:15:35.236Z,2.73
2019-02-17T05:18:04.898Z,2.71
2019-02-17T05:20:34.568Z,2.68
2019-02-17T05:23:05.088Z,2.66
2019-02-17T05:25:34.761Z,2.62
2019-02-17T05:28:05.220Z,2.62
2019-02-17T05:30:34.898Z,2.59
2019-02-17T05:33:04.761Z,2.57
2019-02-17T05:35:34.675Z,2.57
2019-02-17T05:38:04.888Z,2.56
2019-02-17T05:40:36.614Z,2.56
2019-02-17T05:43:06.141Z,2.54
2019-02-17T05:45:36.058Z,2.54
2019-02-17T05:48:05.766Z,2.54
2019-02-17T05:50:35.428Z,2.53
2019-02-17T05:53:05.115Z,2.52
2019-02-17T05:55:34.798Z,2.52
2019-02-17T05:58:05.012Z,2.52
2019-02-17T06:00:36.279Z,2.50
2019-02-17T06:03:06.208Z,2.49
2019-02-17T06:05:36.105Z,2.47
2019-02-17T06:08:05.860Z,2.44
2019-02-17T06:10:35.552Z,2.42
2019-02-17T06:13:05.218Z,2.40
2019-02-17T06:15:34.897Z,2.38
2019-02-17T06:18:05.328Z,2.38
2019-02-17T06:20:35.007Z,2.36
2019-02-17T06:23:05.530Z,2.36
2019-02-17T06:25:36.187Z,2.33
2019-02-17T06:28:05.858Z,2.31
2019-02-17T06:30:35.543Z,2.29
2019-02-17T06:33:05.465Z,2.29
2019-02-17T06:35:35.142Z,2.28
2019-02-17T06:38:05.128Z,2.27
2019-02-17T06:40:34.965Z,2.24
2019-02-17T06:43:04.745Z,2.27
2019-02-17T06:45:34.427Z,2.22
2019-02-17T06:48:04.916Z,2.20
2019-02-17T06:50:34.689Z,2.19
2019-02-17T06:53:05.054Z,2.20
2019-02-17T06:55:45.280Z,2.20
2019-02-17T06:58:15.349Z,2.19
2019-02-17T07:00:50.309Z,2.20
2019-02-17T07:03:20.171Z,2.18
2019-02-17T07:06:12.012Z,2.19
2019-02-17T07:08:41.788Z,2.20
2019-02-17T07:11:11.539Z,2.20
2019-02-17T07:13:41.201Z,2.19
2019-02-17T07:16:10.887Z,2.19
2019-02-17T07:18:40.555Z,2.20
2019-02-17T07:21:11.265Z,2.19
2019-02-17T07:23:40.928Z,2.21
2019-02-17T07:26:10.605Z,2.21
2019-02-17T07:28:40.272Z,2.20
2019-02-17T07:31:09.947Z,2.21
2019-02-17T07:33:39.623Z,2.23
2019-02-17T07:36:09.295Z,2.24
2019-02-17T07:38:38.969Z,2.24
2019-02-17T07:41:08.643Z,2.25
2019-02-17T07:43:38.478Z,2.25
2019-02-17T07:46:08.145Z,2.25
2019-02-17T07:48:37.827Z,2.27
2019-02-17T07:51:07.546Z,2.30
2019-02-17T07:53:37.212Z,2.31
2019-02-17T07:56:07.196Z,2.32
2019-02-17T07:58:36.894Z,2.34
2019-02-17T08:01:07.344Z,2.38
2019-02-17T08:03:37.029Z,2.41
2019-02-17T08:06:06.698Z,2.46
2019-02-17T08:08:36.379Z,2.49
2019-02-17T08:11:06.064Z,2.50
2019-02-17T08:13:35.723Z,2.54
2019-02-17T08:16:05.627Z,2.57
2019-02-17T08:18:35.313Z,2.61
2019-02-17T08:21:05.251Z,2.64
2019-02-17T08:23:34.920Z,2.67
2019-02-17T08:26:04.883Z,2.71
2019-02-17T08:28:34.564Z,2.75
2019-02-17T08:31:04.242Z,2.78
2019-02-17T08:33:33.915Z,2.84
2019-02-17T08:36:03.591Z,2.84
2019-02-17T08:38:33.526Z,2.87
2019-02-17T08:41:03.207Z,2.89
2019-02-17T08:43:32.897Z,2.95
2019-02-17T08:46:02.576Z,2.99
2019-02-17T08:48:32.488Z,3.05
2019-02-17T08:51:02.152Z,3.11
2019-02-17T08:53:31.841Z,3.17
2019-02-17T08:56:01.519Z,3.23
2019-02-17T08:58:31.189Z,3.31
2019-02-17T09:01:00.885Z,3.36
2019-02-17T09:03:30.980Z,3.44
2019-02-17T09:06:00.751Z,3.53
2019-02-17T09:08:30.414Z,3.64
2019-02-17T09:11:00.160Z,3.77
2019-02-17T09:13:30.023Z,3.95
2019-02-17T09:15:59.688Z,4.18
2019-02-17T09:18:29.587Z,4.45
2019-02-17T09:20:59.260Z,4.71
2019-02-17T09:23:28.925Z,4.86
2019-02-17T09:25:58.606Z,4.99
2019-02-17T09:28:28.273Z,5.13
2019-02-17T09:30:58.913Z,5.29
2019-02-17T09:33:28.621Z,5.47
2019-02-17T09:35:58.299Z,5.68
2019-02-17T09:38:28.148Z,5.86
2019-02-17T09:40:57.822Z,6.01
2019-02-17T09:43:27.489Z,6.16
2019-02-17T09:45:57.169Z,6.26
2019-02-17T09:48:26.907Z,6.40
2019-02-17T09:50:56.580Z,6.57
2019-02-17T09:53:26.433Z,6.82
2019-02-17T09:55:56.112Z,7.06
2019-02-17T09:58:26.059Z,7.38
2019-02-17T10:00:55.734Z,7.66
2019-02-17T10:03:25.404Z,7.91
2019-02-17T10:05:55.080Z,8.14
2019-02-17T10:08:24.763Z,8.33
2019-02-17T10:10:54.448Z,8.47
2019-02-17T10:13:24.155Z,8.58
2019-02-17T10:15:53.797Z,8.62
2019-02-17T10:18:23.467Z,8.65
2019-02-17T10:20:53.135Z,8.77
2019-02-17T10:23:22.814Z,8.86
2019-02-17T10:25:52.481Z,9.00
2019-02-17T10:28:22.153Z,9.15
2019-02-17T10:30:51.904Z,9.27
2019-02-17T10:33:21.667Z,9.40
2019-02-17T10:35:51.632Z,9.58
2019-02-17T10:38:21.385Z,9.69
2019-02-17T10:40:51.060Z,9.82
2019-02-17T10:43:20.914Z,9.90
2019-02-17T10:45:50.834Z,10.02
2019-02-17T10:48:20.528Z,10.10
2019-02-17T10:50:50.222Z,10.18
2019-02-17T10:53:19.934Z,10.22
2019-02-17T10:55:49.606Z,10.36
2019-02-17T10:58:19.287Z,10.56
2019-02-17T11:00:48.975Z,10.69
2019-02-17T11:03:18.725Z,10.82
2019-02-17T11:05:48.621Z,10.92
2019-02-17T11:08:18.302Z,11.07
2019-02-17T11:10:48.001Z,11.27
2019-02-17T11:13:18.649Z,11.46
2019-02-17T11:15:48.326Z,11.59
2019-02-17T11:18:18.034Z,11.70
2019-02-17T11:20:47.712Z,11.88
2019-02-17T11:23:17.665Z,12.07
2019-02-17T11:25:47.521Z,12.27
2019-02-17T11:28:17.195Z,12.45
2019-02-17T11:30:46.910Z,12.64
2019-02-17T11:33:16.586Z,12.78
2019-02-17T11:35:46.241Z,12.92
2019-02-17T11:38:15.922Z,13.03
2019-02-17T11:40:45.585Z,13.13
2019-02-17T11:43:15.282Z,13.40
2019-02-17T11:45:45.025Z,13.64
2019-02-17T11:48:14.704Z,13.87
2019-02-17T11:50:44.398Z,14.05
2019-02-17T11:53:14.088Z,14.23
2019-02-17T11:55:43.788Z,14.36
2019-02-17T11:58:13.705Z,14.48
2019-02-17T12:00:43.374Z,14.62
2019-02-17T12:03:13.242Z,14.74
2019-02-17T12:05:43.138Z,14.83
2019-02-17T12:08:12.798Z,14.91
2019-02-17T12:10:42.484Z,15.05
2019-02-17T12:13:12.414Z,15.18
2019-02-17T12:15:42.098Z,15.39
2019-02-17T12:18:12.044Z,15.54
2019-02-17T12:20:56.183Z,15.72
2019-02-17T12:23:30.277Z,15.82
2019-02-17T12:26:03.645Z,15.89
2019-02-17T12:28:43.279Z,15.96
2019-02-17T12:31:17.976Z,16.01
2019-02-17T12:33:47.676Z,16.03
2019-02-17T12:36:17.372Z,16.16
2019-02-17T12:38:47.042Z,16.33
2019-02-17T12:41:16.813Z,16.47
2019-02-17T12:43:46.729Z,16.61
2019-02-17T12:46:16.522Z,16.72
2019-02-17T12:48:46.209Z,16.88
2019-02-17T12:51:15.881Z,16.88
2019-02-17T12:53:47.801Z,16.93
2019-02-17T12:56:17.185Z,16.95
2019-02-17T12:58:47.028Z,17.00
2019-02-17T13:01:16.621Z,17.02
2019-02-17T13:03:46.309Z,17.03
2019-02-17T13:06:16.021Z,17.08
2019-02-17T13:08:45.699Z,17.07
2019-02-17T13:11:15.391Z,17.10
2019-02-17T13:13:45.073Z,17.11
2019-02-17T13:16:14.768Z,17.11
2019-02-17T13:18:44.452Z,17.13
2019-02-17T13:21:14.167Z,17.14
2019-02-17T13:23:43.847Z,17.16
2019-02-17T13:26:13.509Z,17.19
2019-02-17T13:28:43.197Z,17.21
2019-02-17T13:31:12.882Z,17.22
2019-02-17T13:33:42.810Z,17.19
2019-02-17T13:36:12.491Z,17.25
2019-02-17T13:38:42.469Z,17.29
2019-02-17T13:41:12.151Z,17.38
2019-02-17T13:43:42.054Z,17.38
2019-02-17T13:46:12.017Z,17.41
2019-02-17T13:48:41.947Z,17.42
2019-02-17T13:51:14.524Z,17.41
2019-02-17T13:53:44.433Z,17.39
2019-02-17T13:56:14.114Z,17.39
2019-02-17T13:58:44.057Z,17.38
2019-02-17T14:01:13.729Z,17.33
2019-02-17T14:03:48.963Z,17.34
2019-02-17T14:06:15.045Z,17.36
2019-02-17T14:08:44.710Z,17.41
2019-02-17T14:11:14.381Z,17.40
2019-02-17T14:13:44.065Z,17.32
2019-02-17T14:16:13.769Z,17.33
2019-02-17T14:18:43.437Z,17.34
2019-02-17T14:21:13.190Z,17.36
2019-02-17T14:23:43.116Z,17.37
2019-02-17T14:26:12.803Z,17.41
2019-02-17T14:28:42.589Z,17.41
2019-02-17T14:31:12.282Z,17.41
2019-02-17T14:33:42.070Z,17.41
2019-02-17T14:36:11.731Z,17.41
2019-02-17T14:38:41.412Z,17.37
2019-02-17T14:41:11.091Z,17.36
2019-02-17T14:43:40.956Z,17.36
2019-02-17T14:46:10.638Z,17.36
2019-02-17T14:48:40.557Z,17.31
2019-02-17T14:51:10.241Z,17.27
2019-02-17T14:53:40.169Z,17.25
2019-02-17T14:56:09.866Z,17.15
2019-02-17T14:58:39.538Z,17.09
2019-02-17T15:01:09.218Z,17.03
2019-02-17T15:03:38.902Z,16.96
2019-02-17T15:06:08.578Z,16.93
2019-02-17T15:08:38.262Z,16.90
2019-02-17T15:11:07.957Z,16.87
2019-02-17T15:13:37.621Z,16.81
2019-02-17T15:16:07.322Z,16.74
2019-02-17T15:18:36.999Z,16.69
2019-02-17T15:21:06.683Z,16.63
2019-02-17T15:23:36.633Z,16.57
2019-02-17T15:26:06.317Z,16.51
2019-02-17T15:28:36.000Z,16.45
2019-02-17T15:31:05.676Z,16.41
2019-02-17T15:33:35.345Z,16.38
2019-02-17T15:36:05.119Z,16.32
2019-02-17T15:38:46.107Z,16.26
2019-02-17T15:41:15.791Z,16.22
2019-02-17T15:43:45.707Z,16.14
2019-02-17T15:46:15.379Z,16.08
2019-02-17T15:48:45.063Z,16.02
2019-02-17T15:51:14.737Z,15.92
2019-02-17T15:53:44.415Z,15.86
2019-02-17T15:56:14.102Z,15.79
2019-02-17T15:58:45.043Z,15.76
2019-02-17T16:01:14.813Z,15.70
2019-02-17T16:03:45.057Z,15.64
2019-02-17T16:06:14.802Z,15.58
2019-02-17T16:08:44.477Z,15.50
2019-02-17T16:11:14.176Z,15.46
2019-02-17T16:13:43.850Z,15.40
2019-02-17T16:16:13.600Z,15.34
2019-02-17T16:18:43.263Z,15.25
2019-02-17T16:21:12.945Z,15.15
2019-02-17T16:23:42.670Z,15.08
2019-02-17T16:26:13.875Z,15.02
2019-02-17T16:28:43.630Z,14.94
2019-02-17T16:31:13.349Z,14.89
2019-02-17T16:33:43.027Z,14.79
2019-02-17T16:36:12.711Z,14.71
2019-02-17T16:38:42.413Z,14.64
2019-02-17T16:41:12.093Z,14.56
2019-02-17T16:43:42.022Z,14.49
2019-02-17T16:46:11.697Z,14.43
2019-02-17T16:48:41.607Z,14.35
2019-02-17T16:51:11.282Z,14.25
2019-02-17T16:53:41.212Z,14.13
2019-02-17T16:56:11.014Z,14.01
2019-02-17T16:58:40.769Z,13.89
2019-02-17T17:01:10.535Z,13.75
2019-02-17T17:03:40.481Z,13.60
2019-02-17T17:06:10.238Z,13.44
2019-02-17T17:08:39.934Z,13.28
2019-02-17T17:11:09.610Z,13.14
2019-02-17T17:13:39.294Z,12.99
2019-02-17T17:16:09.525Z,12.85
2019-02-17T17:18:39.466Z,12.71
2019-02-17T17:21:09.225Z,12.56
2019-02-17T17:23:39.089Z,12.43
2019-02-17T17:26:08.873Z,12.28
2019-02-17T17:28:38.548Z,12.15
2019-02-17T17:31:08.248Z,12.00
2019-02-17T17:33:37.908Z,11.85
2019-02-17T17:36:07.584Z,11.71
2019-02-17T17:38:37.277Z,11.58
2019-02-17T17:41:06.949Z,11.46
2019-02-17T17:43:36.634Z,11.32
2019-02-17T17:46:06.309Z,11.20
2019-02-17T17:48:37.179Z,11.07
2019-02-17T17:51:06.845Z,10.92
2019-02-17T17:53:36.510Z,10.77
2019-02-17T17:56:06.193Z,10.64
2019-02-17T17:58:35.886Z,10.51
2019-02-17T18:01:07.740Z,10.41
2019-02-17T18:03:37.034Z,10.32
2019-02-17T18:06:06.711Z,10.21
2019-02-17T18:08:36.406Z,10.10
2019-02-17T18:11:06.107Z,10.01
2019-02-17T18:13:35.788Z,9.93
2019-02-17T18:16:05.467Z,9.85
2019-02-17T18:18:35.327Z,9.78
2019-02-17T18:21:05.218Z,9.70
2019-02-17T18:23:34.889Z,9.63
2019-02-17T18:26:04.936Z,9.56
2019-02-17T18:28:34.850Z,9.48
2019-02-17T18:31:04.965Z,9.40
2019-02-17T18:33:34.635Z,9.31
2019-02-17T18:36:05.357Z,9.19
2019-02-17T18:38:35.038Z,9.07
2019-02-17T18:41:05.588Z,8.96
2019-02-17T18:43:35.264Z,8.87
2019-02-17T18:46:05.344Z,8.81
2019-02-17T18:48:35.061Z,8.75
2019-02-17T18:51:05.188Z,8.70
2019-02-17T18:53:34.862Z,8.62
2019-02-17T18:56:05.111Z,8.57
2019-02-17T18:58:34.795Z,8.50
2019-02-17T19:01:04.540Z,8.45
2019-02-17T19:03:34.238Z,8.39
2019-02-17T19:06:04.845Z,8.34
2019-02-17T19:08:34.758Z,8.28
2019-02-17T19:11:05.421Z,8.23
2019-02-17T19:13:35.366Z,8.18
2019-02-17T19:16:08.769Z,8.12
2019-02-17T19:18:38.856Z,8.09
2019-02-17T19:21:08.530Z,8.04
2019-02-17T19:23:38.197Z,7.94
2019-02-17T19:26:07.875Z,7.87
2019-02-17T19:28:37.537Z,7.81
2019-02-17T19:31:07.359Z,7.72
2019-02-17T19:33:37.044Z,7.63
2019-02-17T19:36:06.729Z,7.51
2019-02-17T19:38:36.406Z,7.43
2019-02-17T19:41:06.090Z,7.41
2019-02-17T19:43:35.956Z,7.37
2019-02-17T19:46:05.634Z,7.34
2019-02-17T19:48:35.335Z,7.32
2019-02-17T19:51:05.322Z,7.27
2019-02-17T19:53:35.469Z,7.23
2019-02-17T19:56:07.402Z,7.19
2019-02-17T19:58:36.540Z,7.12
2019-02-17T20:01:06.285Z,7.05
2019-02-17T20:03:44.308Z,7.01
2019-02-17T20:06:15.763Z,6.98
2019-02-17T20:08:45.470Z,6.92
2019-02-17T20:11:15.142Z,6.88
2019-02-17T20:13:44.829Z,6.86
2019-02-17T20:16:15.027Z,6.84
2019-02-17T20:18:45.098Z,6.87
2019-02-17T20:21:14.768Z,6.89
2019-02-17T20:23:44.454Z,6.93
2019-02-17T20:26:14.430Z,6.98
2019-02-17T20:28:44.108Z,6.99
2019-02-17T20:31:13.795Z,7.02
2019-02-17T20:33:43.488Z,7.05
2019-02-17T20:36:13.173Z,7.12
2019-02-17T20:38:43.108Z,7.22
2019-02-17T20:41:14.904Z,7.32
2019-02-17T20:43:44.830Z,7.43
2019-02-17T20:46:14.523Z,7.54
2019-02-17T20:48:44.220Z,7.64
2019-02-17T20:51:13.987Z,7.75
2019-02-17T20:53:44.521Z,7.84
2019-02-17T20:56:14.225Z,7.93
2019-02-17T20:58:44.951Z,7.99
2019-02-17T21:01:14.757Z,8.07
2019-02-17T21:03:44.754Z,8.15
2019-02-17T21:06:14.434Z,8.21
2019-02-17T21:08:44.099Z,8.24
2019-02-17T21:11:14.019Z,8.26
2019-02-17T21:13:43.707Z,8.25
2019-02-17T21:16:13.377Z,8.26
2019-02-17T21:18:43.051Z,8.26
2019-02-17T21:21:12.729Z,8.24
2019-02-17T21:23:42.411Z,8.23
2019-02-17T21:26:12.404Z,8.22
2019-02-17T21:28:42.072Z,8.18
2019-02-17T21:31:11.766Z,8.16
2019-02-17T21:33:41.428Z,8.12
2019-02-17T21:36:11.099Z,8.10
2019-02-17T21:38:40.768Z,8.09
2019-02-17T21:41:10.467Z,8.09
2019-02-17T21:43:40.141Z,8.08
2019-02-17T21:46:09.810Z,8.03
2019-02-17T21:48:40.342Z,8.02
2019-02-17T21:51:10.045Z,8.01
2019-02-17T21:53:39.709Z,8.00
2019-02-17T21:56:09.378Z,7.98
2019-02-17T21:58:39.060Z,7.96
2019-02-17T22:01:08.721Z,7.95
2019-02-17T22:03:47.611Z,7.91
2019-02-17T22:06:17.271Z,7.88
2019-02-17T22:08:46.957Z,7.85
2019-02-17T22:11:16.627Z,7.84
2019-02-17T22:13:46.296Z,7.84
2019-02-17T22:16:15.964Z,7.85
2019-02-17T22:18:45.624Z,7.82
2019-02-17T22:21:15.561Z,7.88
2019-02-17T22:23:45.225Z,7.91
2019-02-17T22:26:14.903Z,7.94
2019-02-17T22:28:44.582Z,7.97
2019-02-17T22:31:14.334Z,7.98
2019-02-17T22:33:44.035Z,8.00
2019-02-17T22:36:13.767Z,8.07
2019-02-17T22:38:43.436Z,8.07
2019-02-17T22:41:13.118Z,8.07
2019-02-17T22:43:42.955Z,8.07
2019-02-17T22:46:12.625Z,8.06
2019-02-17T22:48:42.292Z,8.03
2019-02-17T22:51:11.990Z,8.00
2019-02-17T22:53:43.949Z,7.97
2019-02-17T22:56:14.085Z,7.93
2019-02-17T22:58:43.748Z,7.92
2019-02-17T23:01:18.429Z,7.90
2019-02-17T23:03:49.913Z,7.87
2019-02-17T23:06:19.665Z,7.87
2019-02-17T23:08:49.404Z,7.88
2019-02-17T23:11:19.088Z,7.88
2019-02-17T23:13:48.756Z,7.87
2019-02-17T23:16:18.496Z,7.86
2019-02-17T23:18:48.176Z,7.82
2019-02-17T23:21:17.833Z,7.78
2019-02-17T23:23:47.503Z,7.75
2019-02-17T23:26:17.323Z,7.74
2019-02-17T23:28:46.988Z,7.72
2019-02-17T23:31:16.653Z,7.70
2019-02-17T23:33:46.320Z,7.66
2019-02-17T23:36:16.169Z,7.63
2019-02-17T23:38:45.838Z,7.64
2019-02-17T23:41:15.588Z,7.66
2019-02-17T23:43:45.274Z,7.72
2019-02-17T23:46:14.957Z,7.77
2019-02-17T23:48:44.877Z,7.78
2019-02-17T23:51:14.557Z,7.78
2019-02-17T23:53:44.222Z,7.78
2019-02-17T23:56:13.912Z,7.79
2019-02-17T23:58:43.612Z,7.77
